sensor_id;sensor_type;location;lat;lon;timestamp;temperature;humidity
2389;DHT22;1205;47.984;7.668;2023-07-22T00:02:16;16.40;99.90
2389;DHT22;1205;47.984;7.668;2023-07-22T00:04:42;16.40;99.90
2389;DHT22;1205;47.984;7.668;2023-07-22T00:07:07;16.30;99.90
2389;DHT22;1205;47.984;7.668;2023-07-22T00:09:33;16.60;99.90
2389;DHT22;1205;47.984;7.668;2023-07-22T00:12:04;16.50;99.90
2389;DHT22;1205;47.984;7.668;2023-07-22T00:14:30;16.40;99.90
2389;DHT22;1205;47.984;7.668;2023-07-22T00:16:56;16.40;99.90
2389;DHT22;1205;47.984;7.668;2023-07-22T00:19:22;16.30;99.90
2389;DHT22;1205;47.984;7.668;2023-07-22T00:21:48;16.40;99.90
2389;DHT22;1205;47.984;7.668;2023-07-22T00:24:14;16.20;99.90
2389;DHT22;1205;47.984;7.668;2023-07-22T00:26:40;16.20;99.90
2389;DHT22;1205;47.984;7.668;2023-07-22T00:29:05;16.30;99.90
2389;DHT22;1205;47.984;7.668;2023-07-22T00:31:32;16.40;99.90
2389;DHT22;1205;47.984;7.668;2023-07-22T00:33:58;16.30;99.90
2389;DHT22;1205;47.984;7.668;2023-07-22T00:36:23;16.20;99.90
2389;DHT22;1205;47.984;7.668;2023-07-22T00:38:50;16.10;99.90
2389;DHT22;1205;47.984;7.668;2023-07-22T00:41:15;16.10;99.90
2389;DHT22;1205;47.984;7.668;2023-07-22T00:43:41;16.00;99.90
2389;DHT22;1205;47.984;7.668;2023-07-22T00:46:06;16.10;99.90
2389;DHT22;1205;47.984;7.668;2023-07-22T00:48:32;16.10;99.90
2389;DHT22;1205;47.984;7.668;2023-07-22T00:50:58;16.20;99.90
2389;DHT22;1205;47.984;7.668;2023-07-22T00:53:24;16.20;99.90
2389;DHT22;1205;47.984;7.668;2023-07-22T00:55:49;16.20;99.90
2389;DHT22;1205;47.984;7.668;2023-07-22T00:58:15;16.20;99.90
2389;DHT22;1205;47.984;7.668;2023-07-22T01:00:41;16.20;99.90
2389;DHT22;1205;47.984;7.668;2023-07-22T01:03:07;16.20;99.90
2389;DHT22;1205;47.984;7.668;2023-07-22T01:05:34;16.30;99.90
2389;DHT22;1205;47.984;7.668;2023-07-22T01:08:02;16.40;99.90
2389;DHT22;1205;47.984;7.668;2023-07-22T01:10:27;16.40;99.90
2389;DHT22;1205;47.984;7.668;2023-07-22T01:12:55;16.40;99.90
2389;DHT22;1205;47.984;7.668;2023-07-22T01:15:21;16.30;99.90
2389;DHT22;1205;47.984;7.668;2023-07-22T01:17:47;16.40;99.90
2389;DHT22;1205;47.984;7.668;2023-07-22T01:20:13;16.50;99.90
2389;DHT22;1205;47.984;7.668;2023-07-22T01:22:42;16.40;99.90
2389;DHT22;1205;47.984;7.668;2023-07-22T01:25:08;16.40;99.90
2389;DHT22;1205;47.984;7.668;2023-07-22T01:27:34;16.40;99.90
2389;DHT22;1205;47.984;7.668;2023-07-22T01:30:00;16.40;99.90
2389;DHT22;1205;47.984;7.668;2023-07-22T01:32:27;16.30;99.90
2389;DHT22;1205;47.984;7.668;2023-07-22T01:34:53;16.30;99.90
2389;DHT22;1205;47.984;7.668;2023-07-22T01:37:18;16.40;99.90
2389;DHT22;1205;47.984;7.668;2023-07-22T01:39:44;16.40;99.90
2389;DHT22;1205;47.984;7.668;2023-07-22T01:42:10;16.40;99.90
2389;DHT22;1205;47.984;7.668;2023-07-22T01:44:35;16.40;99.90
2389;DHT22;1205;47.984;7.668;2023-07-22T01:47:03;16.40;99.90
2389;DHT22;1205;47.984;7.668;2023-07-22T01:49:29;16.30;99.90
2389;DHT22;1205;47.984;7.668;2023-07-22T01:51:55;16.30;99.90
2389;DHT22;1205;47.984;7.668;2023-07-22T01:54:21;16.10;99.90
2389;DHT22;1205;47.984;7.668;2023-07-22T01:56:46;16.20;99.90
2389;DHT22;1205;47.984;7.668;2023-07-22T01:59:12;16.20;99.90
2389;DHT22;1205;47.984;7.668;2023-07-22T02:01:37;16.20;99.90
2389;DHT22;1205;47.984;7.668;2023-07-22T02:04:04;16.30;99.90
2389;DHT22;1205;47.984;7.668;2023-07-22T02:06:29;16.40;99.90
2389;DHT22;1205;47.984;7.668;2023-07-22T02:08:55;16.40;99.90
2389;DHT22;1205;47.984;7.668;2023-07-22T02:11:21;16.50;99.90
2389;DHT22;1205;47.984;7.668;2023-07-22T02:13:47;16.30;99.90
2389;DHT22;1205;47.984;7.668;2023-07-22T02:16:12;16.30;99.90
2389;DHT22;1205;47.984;7.668;2023-07-22T02:18:38;16.50;99.90
2389;DHT22;1205;47.984;7.668;2023-07-22T02:21:03;16.50;99.90
2389;DHT22;1205;47.984;7.668;2023-07-22T02:23:29;16.50;99.90
2389;DHT22;1205;47.984;7.668;2023-07-22T02:25:54;16.30;99.90
2389;DHT22;1205;47.984;7.668;2023-07-22T02:28:21;16.40;99.90
2389;DHT22;1205;47.984;7.668;2023-07-22T02:31:01;16.30;99.90
2389;DHT22;1205;47.984;7.668;2023-07-22T02:33:27;16.30;99.90
2389;DHT22;1205;47.984;7.668;2023-07-22T02:35:53;16.20;99.90
2389;DHT22;1205;47.984;7.668;2023-07-22T02:38:18;16.10;99.90
2389;DHT22;1205;47.984;7.668;2023-07-22T02:40:44;16.00;99.90
2389;DHT22;1205;47.984;7.668;2023-07-22T02:43:10;16.10;99.90
2389;DHT22;1205;47.984;7.668;2023-07-22T02:45:36;16.00;99.90
2389;DHT22;1205;47.984;7.668;2023-07-22T02:48:02;16.10;99.90
2389;DHT22;1205;47.984;7.668;2023-07-22T02:50:29;16.00;99.90
2389;DHT22;1205;47.984;7.668;2023-07-22T02:52:55;16.00;99.90
2389;DHT22;1205;47.984;7.668;2023-07-22T02:55:22;15.70;99.90
2389;DHT22;1205;47.984;7.668;2023-07-22T02:57:48;15.70;99.90
2389;DHT22;1205;47.984;7.668;2023-07-22T03:00:16;15.70;99.90
2389;DHT22;1205;47.984;7.668;2023-07-22T03:02:55;15.70;99.90
2389;DHT22;1205;47.984;7.668;2023-07-22T03:05:27;15.70;99.90
2389;DHT22;1205;47.984;7.668;2023-07-22T03:07:53;15.60;99.90
2389;DHT22;1205;47.984;7.668;2023-07-22T03:10:19;15.70;99.90
2389;DHT22;1205;47.984;7.668;2023-07-22T03:12:44;15.70;99.90
2389;DHT22;1205;47.984;7.668;2023-07-22T03:15:10;15.60;99.90
2389;DHT22;1205;47.984;7.668;2023-07-22T03:17:38;15.80;99.90
2389;DHT22;1205;47.984;7.668;2023-07-22T03:20:05;15.70;99.90
2389;DHT22;1205;47.984;7.668;2023-07-22T03:22:39;15.80;99.90
2389;DHT22;1205;47.984;7.668;2023-07-22T03:25:04;15.70;99.90
2389;DHT22;1205;47.984;7.668;2023-07-22T03:27:33;15.60;99.90
2389;DHT22;1205;47.984;7.668;2023-07-22T03:29:59;15.50;99.90
2389;DHT22;1205;47.984;7.668;2023-07-22T03:32:24;15.30;99.90
2389;DHT22;1205;47.984;7.668;2023-07-22T03:34:50;15.40;99.90
2389;DHT22;1205;47.984;7.668;2023-07-22T03:37:15;15.50;99.90
2389;DHT22;1205;47.984;7.668;2023-07-22T03:39:41;15.40;99.90
2389;DHT22;1205;47.984;7.668;2023-07-22T03:42:06;15.40;99.90
2389;DHT22;1205;47.984;7.668;2023-07-22T03:44:32;15.40;99.90
2389;DHT22;1205;47.984;7.668;2023-07-22T03:46:59;15.60;99.90
2389;DHT22;1205;47.984;7.668;2023-07-22T03:49:24;15.60;99.90
2389;DHT22;1205;47.984;7.668;2023-07-22T03:51:50;15.60;99.90
2389;DHT22;1205;47.984;7.668;2023-07-22T03:54:16;15.60;99.90
2389;DHT22;1205;47.984;7.668;2023-07-22T03:56:41;15.50;99.90
2389;DHT22;1205;47.984;7.668;2023-07-22T03:59:07;15.70;99.90
2389;DHT22;1205;47.984;7.668;2023-07-22T04:01:32;15.80;99.90
2389;DHT22;1205;47.984;7.668;2023-07-22T04:03:58;15.80;99.90
2389;DHT22;1205;47.984;7.668;2023-07-22T04:06:23;15.60;99.90
2389;DHT22;1205;47.984;7.668;2023-07-22T04:08:49;15.50;99.90
2389;DHT22;1205;47.984;7.668;2023-07-22T04:11:14;15.60;99.90
2389;DHT22;1205;47.984;7.668;2023-07-22T04:13:40;15.60;99.90
2389;DHT22;1205;47.984;7.668;2023-07-22T04:16:05;15.60;99.90
2389;DHT22;1205;47.984;7.668;2023-07-22T04:18:31;15.40;99.90
2389;DHT22;1205;47.984;7.668;2023-07-22T04:21:00;15.40;99.90
2389;DHT22;1205;47.984;7.668;2023-07-22T04:23:26;15.60;99.90
2389;DHT22;1205;47.984;7.668;2023-07-22T04:25:52;15.50;99.90
2389;DHT22;1205;47.984;7.668;2023-07-22T04:28:18;15.20;99.90
2389;DHT22;1205;47.984;7.668;2023-07-22T04:30:55;15.10;99.90
2389;DHT22;1205;47.984;7.668;2023-07-22T04:33:20;15.40;99.90
2389;DHT22;1205;47.984;7.668;2023-07-22T04:35:46;15.50;99.90
2389;DHT22;1205;47.984;7.668;2023-07-22T04:38:12;15.40;99.90
2389;DHT22;1205;47.984;7.668;2023-07-22T04:40:37;15.40;99.90
2389;DHT22;1205;47.984;7.668;2023-07-22T04:43:07;15.50;99.90
2389;DHT22;1205;47.984;7.668;2023-07-22T04:45:33;15.50;99.90
2389;DHT22;1205;47.984;7.668;2023-07-22T04:47:59;15.50;99.90
2389;DHT22;1205;47.984;7.668;2023-07-22T04:50:25;15.60;99.90
2389;DHT22;1205;47.984;7.668;2023-07-22T04:52:50;15.60;99.90
2389;DHT22;1205;47.984;7.668;2023-07-22T04:55:17;15.90;99.90
2389;DHT22;1205;47.984;7.668;2023-07-22T04:57:42;16.30;99.90
2389;DHT22;1205;47.984;7.668;2023-07-22T05:00:11;16.70;99.90
2389;DHT22;1205;47.984;7.668;2023-07-22T05:02:45;17.10;99.90
2389;DHT22;1205;47.984;7.668;2023-07-22T05:05:12;17.50;99.90
2389;DHT22;1205;47.984;7.668;2023-07-22T05:07:37;17.80;99.90
2389;DHT22;1205;47.984;7.668;2023-07-22T05:10:03;18.20;99.90
2389;DHT22;1205;47.984;7.668;2023-07-22T05:12:29;18.60;99.90
2389;DHT22;1205;47.984;7.668;2023-07-22T05:14:54;18.90;99.90
2389;DHT22;1205;47.984;7.668;2023-07-22T05:17:20;19.20;99.90
2389;DHT22;1205;47.984;7.668;2023-07-22T05:19:45;19.50;99.90
2389;DHT22;1205;47.984;7.668;2023-07-22T05:22:11;19.60;99.90
2389;DHT22;1205;47.984;7.668;2023-07-22T05:24:36;19.90;99.90
2389;DHT22;1205;47.984;7.668;2023-07-22T05:27:02;19.90;99.90
2389;DHT22;1205;47.984;7.668;2023-07-22T05:29:28;20.20;99.90
2389;DHT22;1205;47.984;7.668;2023-07-22T05:31:53;20.30;99.90
2389;DHT22;1205;47.984;7.668;2023-07-22T05:34:19;20.60;99.80
2389;DHT22;1205;47.984;7.668;2023-07-22T05:36:44;20.80;99.40
2389;DHT22;1205;47.984;7.668;2023-07-22T05:39:10;21.00;99.70
2389;DHT22;1205;47.984;7.668;2023-07-22T05:41:36;21.20;99.00
2389;DHT22;1205;47.984;7.668;2023-07-22T05:44:01;21.40;99.10
2389;DHT22;1205;47.984;7.668;2023-07-22T05:46:27;21.90;98.80
2389;DHT22;1205;47.984;7.668;2023-07-22T05:48:52;22.20;98.30
2389;DHT22;1205;47.984;7.668;2023-07-22T05:51:18;22.00;97.80
2389;DHT22;1205;47.984;7.668;2023-07-22T05:53:44;21.60;98.00
2389;DHT22;1205;47.984;7.668;2023-07-22T05:56:10;21.20;98.60
2389;DHT22;1205;47.984;7.668;2023-07-22T05:58:36;21.10;98.70
2389;DHT22;1205;47.984;7.668;2023-07-22T06:01:01;20.90;98.90
2389;DHT22;1205;47.984;7.668;2023-07-22T06:03:27;20.90;98.90
2389;DHT22;1205;47.984;7.668;2023-07-22T06:05:53;20.90;99.10
2389;DHT22;1205;47.984;7.668;2023-07-22T06:08:19;20.90;99.30
2389;DHT22;1205;47.984;7.668;2023-07-22T06:10:45;21.20;99.10
2389;DHT22;1205;47.984;7.668;2023-07-22T06:13:10;21.70;98.90
2389;DHT22;1205;47.984;7.668;2023-07-22T06:15:36;22.10;98.10
2389;DHT22;1205;47.984;7.668;2023-07-22T06:18:02;22.60;97.50
2389;DHT22;1205;47.984;7.668;2023-07-22T06:20:28;22.90;97.30
2389;DHT22;1205;47.984;7.668;2023-07-22T06:22:54;23.30;96.40
2389;DHT22;1205;47.984;7.668;2023-07-22T06:25:20;23.60;96.10
2389;DHT22;1205;47.984;7.668;2023-07-22T06:27:46;23.90;95.50
2389;DHT22;1205;47.984;7.668;2023-07-22T06:30:11;24.10;94.80
2389;DHT22;1205;47.984;7.668;2023-07-22T06:32:38;24.60;94.50
2389;DHT22;1205;47.984;7.668;2023-07-22T06:35:04;24.70;93.40
2389;DHT22;1205;47.984;7.668;2023-07-22T06:37:30;24.90;93.20
2389;DHT22;1205;47.984;7.668;2023-07-22T06:39:55;25.10;92.90
2389;DHT22;1205;47.984;7.668;2023-07-22T06:42:21;25.40;92.90
2389;DHT22;1205;47.984;7.668;2023-07-22T06:44:46;25.60;92.10
2389;DHT22;1205;47.984;7.668;2023-07-22T06:47:12;25.90;91.80
2389;DHT22;1205;47.984;7.668;2023-07-22T06:49:38;26.00;91.40
2389;DHT22;1205;47.984;7.668;2023-07-22T06:52:04;26.20;91.50
2389;DHT22;1205;47.984;7.668;2023-07-22T06:54:30;26.30;91.20
2389;DHT22;1205;47.984;7.668;2023-07-22T06:56:55;26.50;90.50
2389;DHT22;1205;47.984;7.668;2023-07-22T06:59:21;26.90;90.70
2389;DHT22;1205;47.984;7.668;2023-07-22T07:01:46;27.00;90.00
2389;DHT22;1205;47.984;7.668;2023-07-22T07:04:12;27.00;88.90
2389;DHT22;1205;47.984;7.668;2023-07-22T07:06:38;27.00;88.60
2389;DHT22;1205;47.984;7.668;2023-07-22T07:09:03;27.20;89.80
2389;DHT22;1205;47.984;7.668;2023-07-22T07:11:30;27.40;88.50
2389;DHT22;1205;47.984;7.668;2023-07-22T07:13:57;27.60;88.30
2389;DHT22;1205;47.984;7.668;2023-07-22T07:16:27;27.90;87.40
2389;DHT22;1205;47.984;7.668;2023-07-22T07:18:53;27.90;86.80
2389;DHT22;1205;47.984;7.668;2023-07-22T07:21:21;28.00;87.30
2389;DHT22;1205;47.984;7.668;2023-07-22T07:23:47;28.20;87.30
2389;DHT22;1205;47.984;7.668;2023-07-22T07:26:13;28.30;86.90
2389;DHT22;1205;47.984;7.668;2023-07-22T07:28:39;28.30;87.80
2389;DHT22;1205;47.984;7.668;2023-07-22T07:31:05;28.20;87.20
2389;DHT22;1205;47.984;7.668;2023-07-22T07:33:30;27.80;86.30
2389;DHT22;1205;47.984;7.668;2023-07-22T07:35:56;27.80;87.30
2389;DHT22;1205;47.984;7.668;2023-07-22T07:38:21;27.90;87.70
2389;DHT22;1205;47.984;7.668;2023-07-22T07:40:55;28.10;86.20
2389;DHT22;1205;47.984;7.668;2023-07-22T07:43:21;28.40;86.60
2389;DHT22;1205;47.984;7.668;2023-07-22T07:45:47;28.30;85.40
2389;DHT22;1205;47.984;7.668;2023-07-22T07:48:12;28.30;86.70
2389;DHT22;1205;47.984;7.668;2023-07-22T07:50:38;28.10;86.10
2389;DHT22;1205;47.984;7.668;2023-07-22T07:53:03;27.80;83.70
2389;DHT22;1205;47.984;7.668;2023-07-22T07:55:29;27.50;85.90
2389;DHT22;1205;47.984;7.668;2023-07-22T07:57:54;27.60;84.70
2389;DHT22;1205;47.984;7.668;2023-07-22T08:00:20;27.70;82.70
2389;DHT22;1205;47.984;7.668;2023-07-22T08:02:46;27.40;85.20
2389;DHT22;1205;47.984;7.668;2023-07-22T08:05:12;28.00;84.60
2389;DHT22;1205;47.984;7.668;2023-07-22T08:07:38;28.20;84.20
2389;DHT22;1205;47.984;7.668;2023-07-22T08:10:05;28.30;84.70
2389;DHT22;1205;47.984;7.668;2023-07-22T08:12:32;28.70;82.30
2389;DHT22;1205;47.984;7.668;2023-07-22T08:14:59;29.30;82.30
2389;DHT22;1205;47.984;7.668;2023-07-22T08:17:25;29.70;80.20
2389;DHT22;1205;47.984;7.668;2023-07-22T08:19:51;29.80;78.60
2389;DHT22;1205;47.984;7.668;2023-07-22T08:22:17;30.00;77.90
2389;DHT22;1205;47.984;7.668;2023-07-22T08:24:43;29.90;77.90
2389;DHT22;1205;47.984;7.668;2023-07-22T08:27:09;29.00;77.50
2389;DHT22;1205;47.984;7.668;2023-07-22T08:29:35;28.00;79.00
2389;DHT22;1205;47.984;7.668;2023-07-22T08:32:00;28.20;81.60
2389;DHT22;1205;47.984;7.668;2023-07-22T08:34:26;28.60;81.20
2389;DHT22;1205;47.984;7.668;2023-07-22T08:36:52;29.20;80.70
2389;DHT22;1205;47.984;7.668;2023-07-22T08:39:18;30.00;79.50
2389;DHT22;1205;47.984;7.668;2023-07-22T08:41:48;29.60;78.10
2389;DHT22;1205;47.984;7.668;2023-07-22T08:44:18;30.20;78.90
2389;DHT22;1205;47.984;7.668;2023-07-22T08:46:45;30.00;76.10
2389;DHT22;1205;47.984;7.668;2023-07-22T08:49:11;30.00;75.50
2389;DHT22;1205;47.984;7.668;2023-07-22T08:51:38;29.50;76.00
2389;DHT22;1205;47.984;7.668;2023-07-22T08:54:05;28.30;77.40
2389;DHT22;1205;47.984;7.668;2023-07-22T08:56:31;29.20;80.50
2389;DHT22;1205;47.984;7.668;2023-07-22T08:58:57;29.80;77.70
2389;DHT22;1205;47.984;7.668;2023-07-22T09:01:23;28.50;74.70
2389;DHT22;1205;47.984;7.668;2023-07-22T09:03:49;28.70;76.20
2389;DHT22;1205;47.984;7.668;2023-07-22T09:06:18;28.30;74.90
2389;DHT22;1205;47.984;7.668;2023-07-22T09:08:45;28.30;76.80
2389;DHT22;1205;47.984;7.668;2023-07-22T09:11:11;27.70;78.10
2389;DHT22;1205;47.984;7.668;2023-07-22T09:13:37;27.30;76.70
2389;DHT22;1205;47.984;7.668;2023-07-22T09:16:05;26.70;77.50
2389;DHT22;1205;47.984;7.668;2023-07-22T09:18:33;27.10;80.20
2389;DHT22;1205;47.984;7.668;2023-07-22T09:20:59;27.70;77.00
2389;DHT22;1205;47.984;7.668;2023-07-22T09:23:38;27.90;79.00
2389;DHT22;1205;47.984;7.668;2023-07-22T09:26:15;27.40;75.90
2389;DHT22;1205;47.984;7.668;2023-07-22T09:28:56;27.40;76.40
2389;DHT22;1205;47.984;7.668;2023-07-22T09:31:25;27.10;78.70
2389;DHT22;1205;47.984;7.668;2023-07-22T09:33:52;26.40;74.00
2389;DHT22;1205;47.984;7.668;2023-07-22T09:36:19;26.40;76.20
2389;DHT22;1205;47.984;7.668;2023-07-22T09:38:45;26.40;75.10
2389;DHT22;1205;47.984;7.668;2023-07-22T09:41:11;26.10;75.20
2389;DHT22;1205;47.984;7.668;2023-07-22T09:43:39;26.00;75.80
2389;DHT22;1205;47.984;7.668;2023-07-22T09:46:11;25.70;76.40
2389;DHT22;1205;47.984;7.668;2023-07-22T09:48:43;25.80;76.90
2389;DHT22;1205;47.984;7.668;2023-07-22T09:51:14;25.90;76.90
2389;DHT22;1205;47.984;7.668;2023-07-22T09:53:47;25.80;74.70
2389;DHT22;1205;47.984;7.668;2023-07-22T09:56:13;25.80;76.60
2389;DHT22;1205;47.984;7.668;2023-07-22T09:58:39;25.90;76.60
2389;DHT22;1205;47.984;7.668;2023-07-22T10:01:05;25.60;77.60
2389;DHT22;1205;47.984;7.668;2023-07-22T10:03:32;25.40;77.90
2389;DHT22;1205;47.984;7.668;2023-07-22T10:06:00;25.50;77.00
2389;DHT22;1205;47.984;7.668;2023-07-22T10:08:30;25.70;77.50
2389;DHT22;1205;47.984;7.668;2023-07-22T10:11:00;25.70;77.50
2389;DHT22;1205;47.984;7.668;2023-07-22T10:13:26;25.70;76.60
2389;DHT22;1205;47.984;7.668;2023-07-22T10:15:52;25.80;77.90
2389;DHT22;1205;47.984;7.668;2023-07-22T10:18:19;25.80;75.20
2389;DHT22;1205;47.984;7.668;2023-07-22T10:20:46;25.70;75.50
2389;DHT22;1205;47.984;7.668;2023-07-22T10:23:13;25.60;76.70
2389;DHT22;1205;47.984;7.668;2023-07-22T10:25:40;25.40;76.70
2389;DHT22;1205;47.984;7.668;2023-07-22T10:28:07;25.60;77.10
2389;DHT22;1205;47.984;7.668;2023-07-22T10:30:33;25.80;78.10
2389;DHT22;1205;47.984;7.668;2023-07-22T10:32:59;26.10;79.00
2389;DHT22;1205;47.984;7.668;2023-07-22T10:38:13;25.60;77.40
2389;DHT22;1205;47.984;7.668;2023-07-22T10:40:53;25.50;78.00
2389;DHT22;1205;47.984;7.668;2023-07-22T10:43:25;25.70;78.60
2389;DHT22;1205;47.984;7.668;2023-07-22T10:45:57;25.60;77.70
2389;DHT22;1205;47.984;7.668;2023-07-22T10:48:26;25.70;79.10
2389;DHT22;1205;47.984;7.668;2023-07-22T10:50:54;25.50;77.80
2389;DHT22;1205;47.984;7.668;2023-07-22T10:58:33;25.50;76.80
2389;DHT22;1205;47.984;7.668;2023-07-22T11:06:51;26.00;74.90
2389;DHT22;1205;47.984;7.668;2023-07-22T11:17:01;26.10;74.90
2389;DHT22;1205;47.984;7.668;2023-07-22T11:19:29;26.20;74.90
2389;DHT22;1205;47.984;7.668;2023-07-22T11:21:55;25.90;74.70
2389;DHT22;1205;47.984;7.668;2023-07-22T11:24:22;26.00;74.90
2389;DHT22;1205;47.984;7.668;2023-07-22T11:26:49;26.10;74.70
2389;DHT22;1205;47.984;7.668;2023-07-22T11:29:15;26.20;75.10
2389;DHT22;1205;47.984;7.668;2023-07-22T11:31:42;26.20;74.80
2389;DHT22;1205;47.984;7.668;2023-07-22T11:34:11;26.00;73.10
2389;DHT22;1205;47.984;7.668;2023-07-22T11:36:38;26.20;72.30
2389;DHT22;1205;47.984;7.668;2023-07-22T11:39:05;26.10;72.30
2389;DHT22;1205;47.984;7.668;2023-07-22T11:41:32;25.90;70.20
2389;DHT22;1205;47.984;7.668;2023-07-22T11:43:58;25.70;71.20
2389;DHT22;1205;47.984;7.668;2023-07-22T11:46:25;25.90;71.70
2389;DHT22;1205;47.984;7.668;2023-07-22T11:48:52;25.90;70.20
2389;DHT22;1205;47.984;7.668;2023-07-22T11:51:24;26.00;70.20
2389;DHT22;1205;47.984;7.668;2023-07-22T11:53:52;26.10;69.90
2389;DHT22;1205;47.984;7.668;2023-07-22T11:56:22;25.90;69.50
2389;DHT22;1205;47.984;7.668;2023-07-22T11:58:50;26.00;70.30
2389;DHT22;1205;47.984;7.668;2023-07-22T12:01:15;26.20;70.60
2389;DHT22;1205;47.984;7.668;2023-07-22T12:03:41;26.50;71.40
2389;DHT22;1205;47.984;7.668;2023-07-22T12:06:07;26.60;70.30
2389;DHT22;1205;47.984;7.668;2023-07-22T12:08:33;26.70;72.10
2389;DHT22;1205;47.984;7.668;2023-07-22T12:10:59;26.50;70.20
2389;DHT22;1205;47.984;7.668;2023-07-22T12:13:25;26.80;71.60
2389;DHT22;1205;47.984;7.668;2023-07-22T12:16:01;26.50;71.40
2389;DHT22;1205;47.984;7.668;2023-07-22T12:18:26;26.70;70.50
2389;DHT22;1205;47.984;7.668;2023-07-22T12:20:52;26.80;71.40
2389;DHT22;1205;47.984;7.668;2023-07-22T12:23:18;26.30;71.20
2389;DHT22;1205;47.984;7.668;2023-07-22T12:25:44;26.20;71.50
2389;DHT22;1205;47.984;7.668;2023-07-22T12:28:09;26.50;75.90
2389;DHT22;1205;47.984;7.668;2023-07-22T12:30:36;26.90;72.30
2389;DHT22;1205;47.984;7.668;2023-07-22T12:33:02;26.60;71.40
2389;DHT22;1205;47.984;7.668;2023-07-22T12:35:28;26.60;71.60
2389;DHT22;1205;47.984;7.668;2023-07-22T12:37:53;26.70;71.80
2389;DHT22;1205;47.984;7.668;2023-07-22T12:40:19;26.60;72.20
2389;DHT22;1205;47.984;7.668;2023-07-22T12:42:46;26.60;71.90
2389;DHT22;1205;47.984;7.668;2023-07-22T12:45:12;26.80;72.90
2389;DHT22;1205;47.984;7.668;2023-07-22T12:47:38;26.90;70.40
2389;DHT22;1205;47.984;7.668;2023-07-22T12:50:05;27.20;73.20
2389;DHT22;1205;47.984;7.668;2023-07-22T12:52:30;27.00;70.70
2389;DHT22;1205;47.984;7.668;2023-07-22T12:54:56;27.20;71.80
2389;DHT22;1205;47.984;7.668;2023-07-22T12:57:21;27.50;73.70
2389;DHT22;1205;47.984;7.668;2023-07-22T12:59:47;27.30;71.90
2389;DHT22;1205;47.984;7.668;2023-07-22T13:02:13;27.00;71.80
2389;DHT22;1205;47.984;7.668;2023-07-22T13:04:38;26.80;71.30
2389;DHT22;1205;47.984;7.668;2023-07-22T13:07:04;26.80;72.70
2389;DHT22;1205;47.984;7.668;2023-07-22T13:09:29;26.90;73.90
2389;DHT22;1205;47.984;7.668;2023-07-22T13:11:55;27.00;71.30
2389;DHT22;1205;47.984;7.668;2023-07-22T13:14:21;26.80;72.20
2389;DHT22;1205;47.984;7.668;2023-07-22T13:16:46;26.80;73.50
2389;DHT22;1205;47.984;7.668;2023-07-22T13:19:12;27.00;72.80
2389;DHT22;1205;47.984;7.668;2023-07-22T13:21:37;27.10;72.10
2389;DHT22;1205;47.984;7.668;2023-07-22T13:24:03;27.10;72.40
2389;DHT22;1205;47.984;7.668;2023-07-22T13:26:29;26.80;70.70
2389;DHT22;1205;47.984;7.668;2023-07-22T13:28:54;26.80;71.80
2389;DHT22;1205;47.984;7.668;2023-07-22T13:31:20;26.90;71.20
2389;DHT22;1205;47.984;7.668;2023-07-22T13:33:45;27.10;72.50
2389;DHT22;1205;47.984;7.668;2023-07-22T13:36:11;27.40;71.80
2389;DHT22;1205;47.984;7.668;2023-07-22T13:38:36;27.30;71.60
2389;DHT22;1205;47.984;7.668;2023-07-22T13:41:02;27.20;71.30
2389;DHT22;1205;47.984;7.668;2023-07-22T13:43:28;27.40;71.50
2389;DHT22;1205;47.984;7.668;2023-07-22T13:45:53;27.70;71.20
2389;DHT22;1205;47.984;7.668;2023-07-22T13:48:19;27.50;69.20
2389;DHT22;1205;47.984;7.668;2023-07-22T13:50:45;27.20;69.30
2389;DHT22;1205;47.984;7.668;2023-07-22T13:53:10;27.40;69.80
2389;DHT22;1205;47.984;7.668;2023-07-22T13:55:36;27.40;69.80
2389;DHT22;1205;47.984;7.668;2023-07-22T13:58:01;27.20;70.00
2389;DHT22;1205;47.984;7.668;2023-07-22T14:00:27;27.10;68.20
2389;DHT22;1205;47.984;7.668;2023-07-22T14:02:53;27.10;69.00
2389;DHT22;1205;47.984;7.668;2023-07-22T14:05:18;27.10;69.60
2389;DHT22;1205;47.984;7.668;2023-07-22T14:07:44;27.10;69.60
2389;DHT22;1205;47.984;7.668;2023-07-22T14:10:09;27.20;67.80
2389;DHT22;1205;47.984;7.668;2023-07-22T14:12:35;27.10;67.50
2389;DHT22;1205;47.984;7.668;2023-07-22T14:15:01;27.20;68.00
2389;DHT22;1205;47.984;7.668;2023-07-22T14:17:29;27.20;67.80
2389;DHT22;1205;47.984;7.668;2023-07-22T14:19:57;27.40;70.40
2389;DHT22;1205;47.984;7.668;2023-07-22T14:22:23;27.60;68.10
2389;DHT22;1205;47.984;7.668;2023-07-22T14:24:48;27.60;66.30
2389;DHT22;1205;47.984;7.668;2023-07-22T14:27:15;27.50;66.60
2389;DHT22;1205;47.984;7.668;2023-07-22T14:29:41;27.50;66.90
2389;DHT22;1205;47.984;7.668;2023-07-22T14:32:07;27.50;67.10
2389;DHT22;1205;47.984;7.668;2023-07-22T14:34:32;27.30;66.40
2389;DHT22;1205;47.984;7.668;2023-07-22T14:36:58;27.40;67.30
2389;DHT22;1205;47.984;7.668;2023-07-22T14:39:24;27.40;66.70
2389;DHT22;1205;47.984;7.668;2023-07-22T14:41:49;27.40;66.60
2389;DHT22;1205;47.984;7.668;2023-07-22T14:44:15;27.30;66.50
2389;DHT22;1205;47.984;7.668;2023-07-22T14:46:40;27.50;67.20
2389;DHT22;1205;47.984;7.668;2023-07-22T14:49:06;27.60;66.50
2389;DHT22;1205;47.984;7.668;2023-07-22T14:51:35;27.70;67.30
2389;DHT22;1205;47.984;7.668;2023-07-22T14:54:01;27.90;67.00
2389;DHT22;1205;47.984;7.668;2023-07-22T14:56:26;27.90;65.50
2389;DHT22;1205;47.984;7.668;2023-07-22T14:58:52;27.90;66.00
2389;DHT22;1205;47.984;7.668;2023-07-22T15:01:17;27.90;65.90
2389;DHT22;1205;47.984;7.668;2023-07-22T15:03:43;27.90;66.40
2389;DHT22;1205;47.984;7.668;2023-07-22T15:06:08;27.80;66.20
2389;DHT22;1205;47.984;7.668;2023-07-22T15:08:34;27.60;65.50
2389;DHT22;1205;47.984;7.668;2023-07-22T15:11:00;27.50;65.90
2389;DHT22;1205;47.984;7.668;2023-07-22T15:13:25;27.40;65.90
2389;DHT22;1205;47.984;7.668;2023-07-22T15:15:53;27.40;66.70
2389;DHT22;1205;47.984;7.668;2023-07-22T15:18:19;27.50;66.90
2389;DHT22;1205;47.984;7.668;2023-07-22T15:20:44;27.50;67.20
2389;DHT22;1205;47.984;7.668;2023-07-22T15:23:10;27.50;67.10
2389;DHT22;1205;47.984;7.668;2023-07-22T15:25:36;27.50;66.90
2389;DHT22;1205;47.984;7.668;2023-07-22T15:28:01;27.50;67.30
2389;DHT22;1205;47.984;7.668;2023-07-22T15:30:27;27.50;67.60
2389;DHT22;1205;47.984;7.668;2023-07-22T15:32:52;27.60;68.20
2389;DHT22;1205;47.984;7.668;2023-07-22T15:35:18;27.30;67.20
2389;DHT22;1205;47.984;7.668;2023-07-22T15:37:44;27.60;68.10
2389;DHT22;1205;47.984;7.668;2023-07-22T15:40:10;27.60;67.80
2389;DHT22;1205;47.984;7.668;2023-07-22T15:42:36;27.60;67.00
2389;DHT22;1205;47.984;7.668;2023-07-22T15:45:01;27.70;67.80
2389;DHT22;1205;47.984;7.668;2023-07-22T15:47:27;27.70;67.50
2389;DHT22;1205;47.984;7.668;2023-07-22T15:49:52;27.70;67.20
2389;DHT22;1205;47.984;7.668;2023-07-22T15:52:18;27.40;66.50
2389;DHT22;1205;47.984;7.668;2023-07-22T15:54:44;27.40;67.30
2389;DHT22;1205;47.984;7.668;2023-07-22T15:57:09;27.50;67.60
2389;DHT22;1205;47.984;7.668;2023-07-22T15:59:35;27.70;68.80
2389;DHT22;1205;47.984;7.668;2023-07-22T16:02:01;27.70;67.10
2389;DHT22;1205;47.984;7.668;2023-07-22T16:04:27;27.60;66.90
2389;DHT22;1205;47.984;7.668;2023-07-22T16:06:53;27.70;67.90
2389;DHT22;1205;47.984;7.668;2023-07-22T16:09:18;27.70;67.70
2389;DHT22;1205;47.984;7.668;2023-07-22T16:11:44;27.50;67.20
2389;DHT22;1205;47.984;7.668;2023-07-22T16:14:10;27.70;68.20
2389;DHT22;1205;47.984;7.668;2023-07-22T16:16:35;27.70;68.40
2389;DHT22;1205;47.984;7.668;2023-07-22T16:19:01;27.80;67.40